Waterloo, Belgium
Current Conditions -  °F | °C
As of 6:50 AM on Monday 20 Oct 2014 (Local Time) from EBBR Reporting Station
Few Clouds Few Clouds  
Wind Chill: 55°   Ceiling: Unl
Heat Index: 55°   Visibility: 6mi
Dew Point: 52°   Wind: 12mph
Humidity: 88%   Direction: 230°SW
Pressure: 30.03"   Gusts: NA
Location:  50.71°N, 4.4°E
Report Text: EBBR 200450Z 23010KT 9999 FEW014 13/11 Q1017 NOSIG
Loading
Personal Weather Stations






























Interactive Weather Map
Tropical Storm Tracking
New forecast layout! Learn more

10-Day Weather Forecast

Advertisements
Track Severe Weather on mobile